createdAt,value
2022-10-17T00:00:15.753Z,14.09
2022-10-17T00:02:44.445Z,14.17
2022-10-17T00:05:15.686Z,14.02
2022-10-17T00:07:46.905Z,13.72
2022-10-17T00:10:18.754Z,13.77
2022-10-17T00:12:52.162Z,13.88
2022-10-17T00:15:21.965Z,13.99
2022-10-17T00:17:51.502Z,13.82
2022-10-17T00:20:20.612Z,13.51
2022-10-17T00:22:49.684Z,13.61
2022-10-17T00:25:18.911Z,13.46
2022-10-17T00:27:47.693Z,13.56
2022-10-17T00:30:20.490Z,13.47
2022-10-17T00:32:49.382Z,13.47
2022-10-17T00:35:18.271Z,13.69
2022-10-17T00:37:49.416Z,13.58
2022-10-17T00:40:19.380Z,13.41
2022-10-17T00:42:51.258Z,13.43
2022-10-17T00:45:25.140Z,13.64
2022-10-17T00:47:59.072Z,13.73
2022-10-17T00:50:29.434Z,13.65
2022-10-17T00:53:04.017Z,13.77
2022-10-17T00:55:40.186Z,13.80
2022-10-17T00:58:09.474Z,13.73
2022-10-17T01:00:44.085Z,13.68
2022-10-17T01:03:13.212Z,13.55
2022-10-17T01:05:43.471Z,13.60
2022-10-17T01:08:12.496Z,13.80
2022-10-17T01:10:55.953Z,13.61
2022-10-17T01:13:31.479Z,13.78
2022-10-17T01:16:12.875Z,13.84
2022-10-17T01:18:57.447Z,13.95
2022-10-17T01:21:32.681Z,13.73
2022-10-17T01:24:35.252Z,13.73
2022-10-17T01:27:43.770Z,13.81
2022-10-17T01:30:55.518Z,13.55
2022-10-17T01:33:39.137Z,13.48
2022-10-17T01:36:13.093Z,13.71
2022-10-17T01:38:49.355Z,13.21
2022-10-17T01:41:28.842Z,13.50
2022-10-17T01:44:05.078Z,13.55
2022-10-17T01:46:38.222Z,13.52
2022-10-17T01:49:11.290Z,13.64
2022-10-17T01:51:42.606Z,13.87
2022-10-17T01:54:15.265Z,13.88
2022-10-17T01:56:47.140Z,13.74
2022-10-17T01:59:20.641Z,13.69
2022-10-17T02:01:53.515Z,13.85
2022-10-17T02:04:25.322Z,13.73
2022-10-17T02:06:54.113Z,13.81
2022-10-17T02:09:25.400Z,13.62
2022-10-17T02:12:22.419Z,13.75
2022-10-17T02:15:05.320Z,13.81
2022-10-17T02:17:46.749Z,13.87
2022-10-17T02:20:25.018Z,13.76
2022-10-17T02:23:04.170Z,14.02
2022-10-17T02:25:45.112Z,13.96
2022-10-17T02:28:22.362Z,13.76
2022-10-17T02:30:57.290Z,13.77
2022-10-17T02:33:30.761Z,13.64
2022-10-17T02:36:04.913Z,13.92
2022-10-17T02:38:35.586Z,13.95
2022-10-17T02:41:07.357Z,13.88
2022-10-17T02:43:38.078Z,13.89
2022-10-17T02:46:10.226Z,14.04
2022-10-17T02:48:43.132Z,14.22
2022-10-17T02:51:25.300Z,14.20
2022-10-17T02:54:07.517Z,14.21
2022-10-17T02:56:45.327Z,14.39
2022-10-17T02:59:18.646Z,14.37
2022-10-17T03:01:48.142Z,14.32
2022-10-17T03:04:22.178Z,14.29
2022-10-17T03:06:55.262Z,14.18
2022-10-17T03:09:25.238Z,14.18
2022-10-17T03:11:54.413Z,14.29
2022-10-17T03:14:25.647Z,14.30
2022-10-17T03:16:54.598Z,14.13
2022-10-17T03:19:24.094Z,14.19
2022-10-17T03:21:56.562Z,14.05
2022-10-17T03:24:27.742Z,14.10
2022-10-17T03:26:56.719Z,14.27
2022-10-17T03:29:25.821Z,14.37
2022-10-17T03:31:56.026Z,14.22
2022-10-17T03:34:27.438Z,14.08
2022-10-17T03:36:59.913Z,14.24
2022-10-17T03:39:30.669Z,14.28
2022-10-17T03:42:00.164Z,14.15
2022-10-17T03:44:32.172Z,14.39
2022-10-17T03:47:01.785Z,14.26
2022-10-17T03:49:33.174Z,14.27
2022-10-17T03:52:04.045Z,14.20
2022-10-17T03:54:33.255Z,14.40
2022-10-17T03:57:04.369Z,14.36
2022-10-17T03:59:35.706Z,14.37
2022-10-17T04:02:09.375Z,14.21
2022-10-17T04:04:38.078Z,14.27
2022-10-17T04:07:21.078Z,14.52
2022-10-17T04:09:50.848Z,14.22
2022-10-17T04:12:21.917Z,14.43
2022-10-17T04:14:53.378Z,14.41
2022-10-17T04:17:22.904Z,14.38
2022-10-17T04:19:51.887Z,14.24
2022-10-17T04:22:26.937Z,14.53
2022-10-17T04:24:56.058Z,14.41
2022-10-17T04:27:33.071Z,14.60
2022-10-17T04:30:04.905Z,14.60
2022-10-17T04:32:38.003Z,14.45
2022-10-17T04:35:26.951Z,14.50
2022-10-17T04:38:04.708Z,14.49
2022-10-17T04:40:33.704Z,14.43
2022-10-17T04:43:04.843Z,14.39
2022-10-17T04:45:37.803Z,14.16
2022-10-17T04:48:08.254Z,14.54
2022-10-17T04:50:37.421Z,14.44
2022-10-17T04:53:32.373Z,14.65
2022-10-17T04:56:01.430Z,14.41
2022-10-17T04:58:31.097Z,14.43
2022-10-17T05:01:06.413Z,14.22
2022-10-17T05:03:38.806Z,14.33
2022-10-17T05:06:09.297Z,14.28
2022-10-17T05:08:41.321Z,14.52
2022-10-17T05:11:18.107Z,14.32
2022-10-17T05:13:51.481Z,14.40
2022-10-17T05:16:20.702Z,14.40
2022-10-17T05:18:53.216Z,14.41
2022-10-17T05:21:23.619Z,14.32
2022-10-17T05:23:53.985Z,14.47
2022-10-17T05:26:23.559Z,13.70
2022-10-17T05:28:53.242Z,14.56
2022-10-17T05:31:27.347Z,14.40
2022-10-17T05:34:01.971Z,14.57
2022-10-17T05:36:34.909Z,14.55
2022-10-17T05:39:08.754Z,14.52
2022-10-17T05:41:39.052Z,14.39
2022-10-17T05:44:08.007Z,14.47
2022-10-17T05:46:42.005Z,14.45
2022-10-17T05:49:19.543Z,14.41
2022-10-17T05:51:54.461Z,14.42
2022-10-17T05:54:24.990Z,14.41
2022-10-17T05:56:54.203Z,14.43
2022-10-17T05:59:26.567Z,14.61
2022-10-17T06:01:59.834Z,14.43
2022-10-17T06:04:28.861Z,14.70
2022-10-17T06:06:57.496Z,14.64
2022-10-17T06:09:27.552Z,14.64
2022-10-17T06:11:59.251Z,14.73
2022-10-17T06:14:27.945Z,13.58
2022-10-17T06:17:02.277Z,14.82
2022-10-17T06:19:33.736Z,14.71
2022-10-17T06:22:02.627Z,14.66
2022-10-17T06:24:35.370Z,14.70
2022-10-17T06:27:10.929Z,14.56
2022-10-17T06:29:42.310Z,14.69
2022-10-17T06:32:14.911Z,14.68
2022-10-17T06:34:46.658Z,14.67
2022-10-17T06:37:16.376Z,14.62
2022-10-17T06:39:48.363Z,14.76
2022-10-17T06:42:21.329Z,14.73
2022-10-17T06:45:06.361Z,14.68
2022-10-17T06:47:44.753Z,14.72
2022-10-17T06:50:29.418Z,14.61
2022-10-17T06:53:14.666Z,14.65
2022-10-17T06:56:04.699Z,14.63
2022-10-17T06:58:49.444Z,15.06
2022-10-17T07:01:37.528Z,14.89
2022-10-17T07:04:07.119Z,14.79
2022-10-17T07:06:39.737Z,14.86
2022-10-17T07:09:14.520Z,14.70
2022-10-17T07:11:44.908Z,14.91
2022-10-17T07:14:18.471Z,14.87
2022-10-17T07:16:48.433Z,14.73
2022-10-17T07:19:20.841Z,14.89
2022-10-17T07:21:52.325Z,14.76
2022-10-17T07:24:23.351Z,14.81
2022-10-17T07:27:11.035Z,14.65
2022-10-17T07:29:39.896Z,14.78
2022-10-17T07:32:18.215Z,14.55
2022-10-17T07:34:47.128Z,14.66
2022-10-17T07:37:18.746Z,14.72
2022-10-17T07:39:54.274Z,14.72
2022-10-17T07:42:25.081Z,14.81
2022-10-17T07:44:58.243Z,14.84
2022-10-17T07:47:31.419Z,14.85
2022-10-17T07:50:06.376Z,15.07
2022-10-17T07:52:35.545Z,15.11
2022-10-17T07:55:13.440Z,15.14
2022-10-17T07:57:49.186Z,15.22
2022-10-17T08:00:18.512Z,15.17
2022-10-17T08:02:49.760Z,14.49
2022-10-17T08:05:18.616Z,15.26
2022-10-17T08:07:47.378Z,15.23
2022-10-17T08:10:19.606Z,15.07
2022-10-17T08:12:52.329Z,15.25
2022-10-17T08:15:26.797Z,15.45
2022-10-17T08:17:58.166Z,15.41
2022-10-17T08:20:27.147Z,15.37
2022-10-17T08:22:56.543Z,15.39
2022-10-17T08:25:27.614Z,15.48
2022-10-17T08:28:00.859Z,15.35
2022-10-17T08:30:32.023Z,15.27
2022-10-17T08:33:00.707Z,15.37
2022-10-17T08:35:32.363Z,15.47
2022-10-17T08:38:03.183Z,15.40
2022-10-17T08:40:35.449Z,15.36
2022-10-17T08:43:35.385Z,15.20
2022-10-17T08:46:07.702Z,15.48
2022-10-17T08:48:46.721Z,15.39
2022-10-17T08:51:22.819Z,15.37
2022-10-17T08:53:56.584Z,15.37
2022-10-17T08:56:48.158Z,15.39
2022-10-17T08:59:27.053Z,15.49
2022-10-17T09:02:04.025Z,15.37
2022-10-17T09:04:52.022Z,15.41
2022-10-17T09:07:33.098Z,15.45
2022-10-17T09:10:15.607Z,15.56
2022-10-17T09:12:52.845Z,15.64
2022-10-17T09:15:51.756Z,15.60
2022-10-17T09:18:27.018Z,15.67
2022-10-17T09:21:04.748Z,14.94
2022-10-17T09:23:42.450Z,15.69
2022-10-17T09:26:14.644Z,15.58
2022-10-17T09:28:44.329Z,15.79
2022-10-17T09:31:21.404Z,15.81
2022-10-17T09:33:54.892Z,15.96
2022-10-17T09:36:27.015Z,15.92
2022-10-17T09:38:57.751Z,15.69
2022-10-17T09:41:44.857Z,15.60
2022-10-17T09:44:21.648Z,15.62
2022-10-17T09:47:11.379Z,15.75
2022-10-17T09:49:44.797Z,15.68
2022-10-17T09:52:17.690Z,15.65
2022-10-17T09:54:48.937Z,15.75
2022-10-17T09:57:19.648Z,15.64
2022-10-17T09:59:56.848Z,15.52
2022-10-17T10:02:29.162Z,15.81
2022-10-17T10:05:05.896Z,15.75
2022-10-17T10:07:39.194Z,15.80
2022-10-17T10:10:28.265Z,15.84
2022-10-17T10:13:06.607Z,15.87
2022-10-17T10:15:48.401Z,15.76
2022-10-17T10:18:38.670Z,15.83
2022-10-17T10:21:11.378Z,15.67
2022-10-17T10:23:41.735Z,15.91
2022-10-17T10:26:26.850Z,15.80
2022-10-17T10:29:00.054Z,15.79
2022-10-17T10:31:33.170Z,15.82
2022-10-17T10:34:04.742Z,15.63
2022-10-17T10:37:05.142Z,15.64
2022-10-17T10:39:43.176Z,15.63
2022-10-17T10:42:26.349Z,15.61
2022-10-17T10:44:58.959Z,15.79
2022-10-17T10:47:32.245Z,15.86
2022-10-17T10:50:25.624Z,15.89
2022-10-17T10:53:13.005Z,15.81
2022-10-17T10:55:48.961Z,15.79
2022-10-17T10:58:29.926Z,15.89
2022-10-17T11:01:03.398Z,15.86
2022-10-17T11:03:37.138Z,15.80
2022-10-17T11:06:14.944Z,15.94
2022-10-17T11:08:49.396Z,15.66
2022-10-17T11:11:27.614Z,15.93
2022-10-17T11:14:01.776Z,16.03
2022-10-17T11:16:37.103Z,15.90
2022-10-17T11:19:14.058Z,16.06
2022-10-17T11:21:48.521Z,15.44
2022-10-17T11:24:24.796Z,16.02
2022-10-17T11:27:00.451Z,15.81
2022-10-17T11:29:32.211Z,15.77
2022-10-17T11:32:06.751Z,15.60
2022-10-17T11:34:41.925Z,15.62
2022-10-17T11:37:17.505Z,15.74
2022-10-17T11:39:51.531Z,15.27
2022-10-17T11:42:24.763Z,15.52
2022-10-17T11:45:01.512Z,15.54
2022-10-17T11:47:40.346Z,15.43
2022-10-17T11:53:15.401Z,15.67
2022-10-17T11:55:45.424Z,15.68
2022-10-17T11:58:26.791Z,15.75
2022-10-17T12:01:08.029Z,15.85
2022-10-17T12:03:49.661Z,16.02
2022-10-17T12:06:29.735Z,15.91
2022-10-17T12:09:11.968Z,16.07
2022-10-17T12:11:54.049Z,16.06
2022-10-17T12:14:43.665Z,15.93
2022-10-17T12:17:35.458Z,15.87
2022-10-17T12:20:27.411Z,15.98
2022-10-17T12:22:58.829Z,16.01
2022-10-17T12:25:31.625Z,16.14
2022-10-17T12:28:14.335Z,16.22
2022-10-17T12:30:52.708Z,16.17
2022-10-17T12:33:23.955Z,16.22
2022-10-17T12:36:46.969Z,16.27
2022-10-17T12:39:54.262Z,16.15
2022-10-17T12:42:50.557Z,16.04
2022-10-17T12:45:48.841Z,16.38
2022-10-17T12:48:55.123Z,16.33
2022-10-17T12:51:40.519Z,16.28
2022-10-17T12:54:14.191Z,16.31
2022-10-17T12:56:47.810Z,16.33
2022-10-17T12:59:23.572Z,16.28
2022-10-17T13:01:59.787Z,16.43
2022-10-17T13:04:31.004Z,16.41
2022-10-17T13:07:02.926Z,16.48
2022-10-17T13:09:34.785Z,16.55
2022-10-17T13:12:06.877Z,16.64
2022-10-17T13:14:42.302Z,16.56
2022-10-17T13:17:24.003Z,16.61
2022-10-17T13:19:53.388Z,16.61
2022-10-17T13:22:25.134Z,16.68
2022-10-17T13:25:06.394Z,16.69
2022-10-17T13:27:36.549Z,16.67
2022-10-17T13:30:24.769Z,16.70
2022-10-17T13:32:59.141Z,16.61
2022-10-17T13:38:27.021Z,16.76
2022-10-17T13:41:11.036Z,16.55
2022-10-17T13:43:45.848Z,16.53
2022-10-17T13:46:36.741Z,16.43
2022-10-17T13:49:23.202Z,16.59
2022-10-17T13:51:55.979Z,16.56
2022-10-17T13:54:35.240Z,16.52
2022-10-17T13:57:17.115Z,16.34
2022-10-17T13:59:50.487Z,16.56
2022-10-17T14:02:23.556Z,16.55
2022-10-17T14:05:19.767Z,16.54
2022-10-17T14:10:43.537Z,16.53
2022-10-17T14:13:23.575Z,16.62
2022-10-17T14:15:53.940Z,16.83
2022-10-17T14:18:33.275Z,16.13
2022-10-17T14:24:29.366Z,16.85
2022-10-17T14:27:01.301Z,16.99
2022-10-17T14:29:34.417Z,16.94
2022-10-17T14:32:08.591Z,16.88
2022-10-17T14:34:38.628Z,16.77
2022-10-17T14:37:13.852Z,16.53
2022-10-17T14:39:42.670Z,16.74
2022-10-17T14:42:42.143Z,16.75
2022-10-17T14:45:19.105Z,16.80
2022-10-17T14:47:54.262Z,16.62
2022-10-17T14:50:27.031Z,16.69
2022-10-17T14:53:06.027Z,16.78
2022-10-17T14:55:36.656Z,16.80
2022-10-17T14:58:17.936Z,16.81
2022-10-17T15:00:46.748Z,16.66
2022-10-17T15:03:46.475Z,16.79
2022-10-17T15:06:21.215Z,16.87
2022-10-17T15:08:51.544Z,16.98
2022-10-17T15:11:23.041Z,17.04
2022-10-17T15:13:51.798Z,17.07
2022-10-17T15:16:25.486Z,16.99
2022-10-17T15:18:55.243Z,16.79
2022-10-17T15:21:39.194Z,16.79
2022-10-17T15:24:12.005Z,16.70
2022-10-17T15:26:43.173Z,16.67
2022-10-17T15:29:16.497Z,15.98
2022-10-17T15:31:45.341Z,16.54
2022-10-17T15:34:14.349Z,16.43
2022-10-17T15:36:49.930Z,16.27
2022-10-17T15:39:23.128Z,16.56
2022-10-17T15:41:51.796Z,16.47
2022-10-17T15:44:23.041Z,16.47
2022-10-17T15:46:56.666Z,16.62
2022-10-17T15:49:25.405Z,16.44
2022-10-17T15:51:55.411Z,16.39
2022-10-17T15:54:25.859Z,16.47
2022-10-17T15:56:56.488Z,15.87
2022-10-17T15:59:35.449Z,16.36
2022-10-17T16:02:04.088Z,16.53
2022-10-17T16:04:35.604Z,16.32
2022-10-17T16:07:04.556Z,16.31
2022-10-17T16:09:35.080Z,16.27
2022-10-17T16:12:04.537Z,16.18
2022-10-17T16:14:35.484Z,16.13
2022-10-17T16:17:04.383Z,16.11
2022-10-17T16:19:33.151Z,16.09
2022-10-17T16:22:04.699Z,16.27
2022-10-17T16:24:37.400Z,16.06
2022-10-17T16:27:06.501Z,16.31
2022-10-17T16:29:35.622Z,15.31
2022-10-17T16:32:04.362Z,15.86
2022-10-17T16:34:33.581Z,15.98
2022-10-17T16:37:02.250Z,15.96
2022-10-17T16:39:31.192Z,15.94
2022-10-17T16:42:03.958Z,16.07
2022-10-17T16:44:34.863Z,16.00
2022-10-17T16:47:03.989Z,15.92
2022-10-17T16:49:35.229Z,16.00
2022-10-17T16:52:06.696Z,15.93
2022-10-17T16:54:35.584Z,15.84
2022-10-17T16:57:06.209Z,15.79
2022-10-17T16:59:35.237Z,15.73
2022-10-17T17:02:04.006Z,15.70
2022-10-17T17:04:32.853Z,15.75
2022-10-17T17:07:04.508Z,15.81
2022-10-17T17:09:35.775Z,15.79
2022-10-17T17:12:06.430Z,15.76
2022-10-17T17:14:35.114Z,15.77
2022-10-17T17:17:03.802Z,15.73
2022-10-17T17:19:35.492Z,15.72
2022-10-17T17:22:04.710Z,15.61
2022-10-17T17:24:33.373Z,15.65
2022-10-17T17:27:02.072Z,15.70
2022-10-17T17:29:32.182Z,15.63
2022-10-17T17:32:00.941Z,15.65
2022-10-17T17:34:32.533Z,15.54
2022-10-17T17:37:01.382Z,15.44
2022-10-17T17:39:30.804Z,15.45
2022-10-17T17:42:00.268Z,15.52
2022-10-17T17:44:29.463Z,15.58
2022-10-17T17:46:59.711Z,15.51
2022-10-17T17:49:28.912Z,15.56
2022-10-17T17:51:57.591Z,15.58
2022-10-17T17:54:26.640Z,15.71
2022-10-17T17:56:55.462Z,15.62
2022-10-17T17:59:24.084Z,15.50
2022-10-17T18:01:52.861Z,15.55
2022-10-17T18:04:23.435Z,15.40
2022-10-17T18:06:52.265Z,15.47
2022-10-17T18:09:24.002Z,15.38
2022-10-17T18:11:55.512Z,15.27
2022-10-17T18:14:25.554Z,15.25
2022-10-17T18:16:57.847Z,15.22
2022-10-17T18:19:28.428Z,15.22
2022-10-17T18:21:57.268Z,15.19
2022-10-17T18:24:25.989Z,15.17
2022-10-17T18:26:59.647Z,15.25
2022-10-17T18:29:31.205Z,15.18
2022-10-17T18:32:01.343Z,14.98
2022-10-17T18:34:31.449Z,15.07
2022-10-17T18:37:02.590Z,15.13
2022-10-17T18:39:31.524Z,15.30
2022-10-17T18:42:00.884Z,15.36
2022-10-17T18:44:30.219Z,15.15
2022-10-17T18:47:03.015Z,15.05
2022-10-17T18:49:35.662Z,15.03
2022-10-17T18:52:04.318Z,13.92
2022-10-17T18:54:33.621Z,15.04
2022-10-17T18:57:03.146Z,15.04
2022-10-17T18:59:31.966Z,15.00
2022-10-17T19:02:00.806Z,15.01
2022-10-17T19:04:31.811Z,14.96
2022-10-17T19:07:02.925Z,15.00
2022-10-17T19:09:31.561Z,14.95
2022-10-17T19:12:00.650Z,14.97
2022-10-17T19:14:30.941Z,14.94
2022-10-17T19:17:00.674Z,14.93
2022-10-17T19:19:29.640Z,14.94
2022-10-17T19:22:05.777Z,14.90
2022-10-17T19:24:34.858Z,14.89
2022-10-17T19:27:07.025Z,14.87
2022-10-17T19:29:36.169Z,14.87
2022-10-17T19:32:12.076Z,14.85
2022-10-17T19:34:47.299Z,14.82
2022-10-17T19:37:17.487Z,14.81
2022-10-17T19:39:46.161Z,14.77
2022-10-17T19:42:17.106Z,14.76
2022-10-17T19:44:45.705Z,14.53
2022-10-17T19:47:16.934Z,14.75
2022-10-17T19:49:49.906Z,14.75
2022-10-17T19:52:20.173Z,14.77
2022-10-17T19:54:48.847Z,14.75
2022-10-17T19:57:17.467Z,14.77
2022-10-17T19:59:46.224Z,14.69
2022-10-17T20:02:14.992Z,14.73
2022-10-17T20:04:54.377Z,14.66
2022-10-17T20:07:30.772Z,14.52
2022-10-17T20:09:59.720Z,14.52
2022-10-17T20:12:29.025Z,14.52
2022-10-17T20:15:00.353Z,14.47
2022-10-17T20:20:07.853Z,14.44
2022-10-17T20:22:41.760Z,14.40
2022-10-17T20:25:12.734Z,14.64
2022-10-17T20:27:41.987Z,14.49
2022-10-17T20:30:11.435Z,14.47
2022-10-17T20:32:40.015Z,14.38
2022-10-17T20:35:09.659Z,14.40
2022-10-17T20:37:41.695Z,14.34
2022-10-17T20:40:43.410Z,14.26
2022-10-17T20:43:02.302Z,14.22
2022-10-17T20:45:50.529Z,14.18
2022-10-17T20:48:20.830Z,14.08
2022-10-17T20:50:52.292Z,14.14
2022-10-17T20:53:37.737Z,14.11
2022-10-17T20:56:12.406Z,14.08
2022-10-17T20:58:41.149Z,14.06
2022-10-17T21:01:11.378Z,13.99
2022-10-17T21:03:43.974Z,14.01
2022-10-17T21:06:15.968Z,14.00
2022-10-17T21:08:45.372Z,14.13
2022-10-17T21:11:18.324Z,14.13
2022-10-17T21:13:48.396Z,14.14
2022-10-17T21:16:19.144Z,14.05
2022-10-17T21:18:49.326Z,14.13
2022-10-17T21:21:19.509Z,14.12
2022-10-17T21:23:50.250Z,14.10
2022-10-17T21:26:20.439Z,14.09
2022-10-17T21:28:50.218Z,14.05
2022-10-17T21:31:20.352Z,13.98
2022-10-17T21:33:53.820Z,13.91
2022-10-17T21:36:23.931Z,13.95
2022-10-17T21:38:55.100Z,13.92
2022-10-17T21:41:28.931Z,13.87
2022-10-17T21:44:00.349Z,13.21
2022-10-17T21:46:29.682Z,13.94
2022-10-17T21:49:00.272Z,13.91
2022-10-17T21:51:29.491Z,14.02
2022-10-17T21:54:00.546Z,13.94
2022-10-17T21:56:32.547Z,13.88
2022-10-17T21:59:01.578Z,13.85
2022-10-17T22:01:36.029Z,13.85
2022-10-17T22:04:07.442Z,13.78
2022-10-17T22:06:40.877Z,13.85
2022-10-17T22:09:13.332Z,13.67
2022-10-17T22:11:45.159Z,13.85
2022-10-17T22:14:15.708Z,13.77
2022-10-17T22:16:46.403Z,13.93
2022-10-17T22:19:17.602Z,13.57
2022-10-17T22:21:48.798Z,13.71
2022-10-17T22:26:51.850Z,13.77
2022-10-17T22:29:20.937Z,13.57
2022-10-17T22:31:49.573Z,13.80
2022-10-17T22:34:20.665Z,13.97
2022-10-17T22:36:49.765Z,14.08
2022-10-17T22:39:18.490Z,13.76
2022-10-17T22:41:47.218Z,13.73
2022-10-17T22:44:17.267Z,13.72
2022-10-17T22:46:46.273Z,13.68
2022-10-17T22:49:19.820Z,13.64
2022-10-17T22:51:48.397Z,13.63
2022-10-17T22:54:19.256Z,13.62
2022-10-17T22:56:47.919Z,13.63
2022-10-17T22:59:18.109Z,13.60
2022-10-17T23:01:46.781Z,13.61
2022-10-17T23:04:22.030Z,13.59
2022-10-17T23:06:51.205Z,13.57
2022-10-17T23:09:19.824Z,13.59
2022-10-17T23:11:48.984Z,13.56
2022-10-17T23:14:19.205Z,13.59
2022-10-17T23:16:48.298Z,13.57
2022-10-17T23:19:17.424Z,13.58
2022-10-17T23:21:46.070Z,13.61
2022-10-17T23:24:14.712Z,13.59
2022-10-17T23:26:45.977Z,13.62
2022-10-17T23:29:14.617Z,13.56
2022-10-17T23:31:44.590Z,13.62
2022-10-17T23:34:16.005Z,13.52
2022-10-17T23:36:44.728Z,13.56
2022-10-17T23:39:15.662Z,13.57
2022-10-17T23:41:44.389Z,13.57
2022-10-17T23:44:13.391Z,13.56
2022-10-17T23:46:42.122Z,13.56
2022-10-17T23:49:14.590Z,13.49
2022-10-17T23:51:43.303Z,13.57
2022-10-17T23:54:14.650Z,13.48
2022-10-17T23:56:45.703Z,13.45
2022-10-17T23:59:14.491Z,13.41
